sensor_id;sensor_type;location;lat;lon;timestamp;P1;durP1;ratioP1;P2;durP2;ratioP2
31716;SDS011;18301;51.076;17.046;2023-03-14T00:03:07;12.88;;;8.15;;
31716;SDS011;18301;51.076;17.046;2023-03-14T00:08:08;8.82;;;5.30;;
31716;SDS011;18301;51.076;17.046;2023-03-14T00:13:10;10.23;;;5.05;;
31716;SDS011;18301;51.076;17.046;2023-03-14T00:18:11;8.40;;;5.25;;
31716;SDS011;18301;51.076;17.046;2023-03-14T00:23:13;10.02;;;4.68;;
31716;SDS011;18301;51.076;17.046;2023-03-14T00:28:14;10.18;;;4.75;;
31716;SDS011;18301;51.076;17.046;2023-03-14T00:33:16;9.30;;;4.90;;
31716;SDS011;18301;51.076;17.046;2023-03-14T00:38:17;12.13;;;6.50;;
31716;SDS011;18301;51.076;17.046;2023-03-14T00:43:19;20.33;;;8.38;;
31716;SDS011;18301;51.076;17.046;2023-03-14T00:48:24;24.48;;;12.10;;
31716;SDS011;18301;51.076;17.046;2023-03-14T00:53:26;17.80;;;8.93;;
31716;SDS011;18301;51.076;17.046;2023-03-14T00:58:28;9.55;;;5.70;;
31716;SDS011;18301;51.076;17.046;2023-03-14T01:03:29;11.52;;;5.43;;
31716;SDS011;18301;51.076;17.046;2023-03-14T01:08:30;11.35;;;5.20;;
31716;SDS011;18301;51.076;17.046;2023-03-14T01:13:32;7.15;;;4.45;;
31716;SDS011;18301;51.076;17.046;2023-03-14T01:18:34;7.63;;;4.13;;
31716;SDS011;18301;51.076;17.046;2023-03-14T01:23:38;9.45;;;4.63;;
31716;SDS011;18301;51.076;17.046;2023-03-14T01:28:40;7.05;;;4.90;;
31716;SDS011;18301;51.076;17.046;2023-03-14T01:33:41;10.43;;;4.90;;
31716;SDS011;18301;51.076;17.046;2023-03-14T01:38:43;10.52;;;5.38;;
31716;SDS011;18301;51.076;17.046;2023-03-14T01:43:45;9.23;;;5.30;;
31716;SDS011;18301;51.076;17.046;2023-03-14T01:53:58;10.18;;;6.35;;
31716;SDS011;18301;51.076;17.046;2023-03-14T02:04:07;11.40;;;6.35;;
31716;SDS011;18301;51.076;17.046;2023-03-14T02:09:09;8.32;;;4.97;;
31716;SDS011;18301;51.076;17.046;2023-03-14T02:14:13;7.43;;;4.50;;
31716;SDS011;18301;51.076;17.046;2023-03-14T02:19:32;9.68;;;4.68;;
31716;SDS011;18301;51.076;17.046;2023-03-14T02:24:56;9.50;;;5.32;;
31716;SDS011;18301;51.076;17.046;2023-03-14T02:30:14;7.43;;;4.82;;
31716;SDS011;18301;51.076;17.046;2023-03-14T02:35:22;7.28;;;4.85;;
31716;SDS011;18301;51.076;17.046;2023-03-14T02:40:26;7.40;;;4.60;;
31716;SDS011;18301;51.076;17.046;2023-03-14T02:45:38;10.13;;;5.18;;
31716;SDS011;18301;51.076;17.046;2023-03-14T02:50:43;8.23;;;4.50;;
31716;SDS011;18301;51.076;17.046;2023-03-14T02:55:47;11.55;;;4.82;;
31716;SDS011;18301;51.076;17.046;2023-03-14T03:00:49;8.07;;;4.63;;
31716;SDS011;18301;51.076;17.046;2023-03-14T03:05:51;7.00;;;4.47;;
31716;SDS011;18301;51.076;17.046;2023-03-14T03:10:54;8.00;;;4.32;;
31716;SDS011;18301;51.076;17.046;2023-03-14T03:15:57;6.47;;;3.97;;
31716;SDS011;18301;51.076;17.046;2023-03-14T03:21:03;5.93;;;3.85;;
31716;SDS011;18301;51.076;17.046;2023-03-14T03:26:05;7.18;;;3.30;;
31716;SDS011;18301;51.076;17.046;2023-03-14T03:31:08;10.95;;;4.40;;
31716;SDS011;18301;51.076;17.046;2023-03-14T03:36:11;4.85;;;3.30;;
31716;SDS011;18301;51.076;17.046;2023-03-14T03:41:12;6.50;;;3.67;;
31716;SDS011;18301;51.076;17.046;2023-03-14T03:46:14;7.20;;;4.10;;
31716;SDS011;18301;51.076;17.046;2023-03-14T03:51:15;6.07;;;3.40;;
31716;SDS011;18301;51.076;17.046;2023-03-14T03:56:17;8.75;;;4.15;;
31716;SDS011;18301;51.076;17.046;2023-03-14T04:01:19;10.18;;;3.47;;
31716;SDS011;18301;51.076;17.046;2023-03-14T04:06:21;7.00;;;3.60;;
31716;SDS011;18301;51.076;17.046;2023-03-14T04:11:22;7.00;;;3.20;;
31716;SDS011;18301;51.076;17.046;2023-03-14T04:16:24;8.90;;;4.10;;
31716;SDS011;18301;51.076;17.046;2023-03-14T04:21:26;8.65;;;3.92;;
31716;SDS011;18301;51.076;17.046;2023-03-14T04:26:28;6.93;;;4.20;;
31716;SDS011;18301;51.076;17.046;2023-03-14T04:31:29;7.95;;;4.30;;
31716;SDS011;18301;51.076;17.046;2023-03-14T04:36:31;6.63;;;3.92;;
31716;SDS011;18301;51.076;17.046;2023-03-14T04:41:33;9.93;;;4.20;;
31716;SDS011;18301;51.076;17.046;2023-03-14T04:46:34;8.60;;;4.13;;
31716;SDS011;18301;51.076;17.046;2023-03-14T04:51:36;8.73;;;3.60;;
31716;SDS011;18301;51.076;17.046;2023-03-14T04:56:38;10.63;;;4.78;;
31716;SDS011;18301;51.076;17.046;2023-03-14T05:01:40;6.47;;;3.60;;
31716;SDS011;18301;51.076;17.046;2023-03-14T05:06:42;8.38;;;4.45;;
31716;SDS011;18301;51.076;17.046;2023-03-14T05:11:43;5.60;;;4.07;;
31716;SDS011;18301;51.076;17.046;2023-03-14T05:16:45;5.53;;;3.17;;
31716;SDS011;18301;51.076;17.046;2023-03-14T05:21:46;5.13;;;3.45;;
31716;SDS011;18301;51.076;17.046;2023-03-14T05:26:48;5.15;;;3.50;;
31716;SDS011;18301;51.076;17.046;2023-03-14T05:31:49;9.55;;;3.70;;
31716;SDS011;18301;51.076;17.046;2023-03-14T05:36:51;5.70;;;3.67;;
31716;SDS011;18301;51.076;17.046;2023-03-14T05:41:53;6.78;;;3.95;;
31716;SDS011;18301;51.076;17.046;2023-03-14T05:46:57;8.10;;;4.20;;
31716;SDS011;18301;51.076;17.046;2023-03-14T05:51:58;7.70;;;4.32;;
31716;SDS011;18301;51.076;17.046;2023-03-14T05:57:00;8.70;;;4.72;;
31716;SDS011;18301;51.076;17.046;2023-03-14T06:02:01;7.32;;;3.90;;
31716;SDS011;18301;51.076;17.046;2023-03-14T06:07:03;10.32;;;4.68;;
31716;SDS011;18301;51.076;17.046;2023-03-14T06:12:04;6.38;;;4.03;;
31716;SDS011;18301;51.076;17.046;2023-03-14T06:17:06;6.57;;;3.85;;
31716;SDS011;18301;51.076;17.046;2023-03-14T06:22:07;7.22;;;4.13;;
31716;SDS011;18301;51.076;17.046;2023-03-14T06:27:09;6.45;;;4.22;;
31716;SDS011;18301;51.076;17.046;2023-03-14T06:32:10;9.15;;;4.68;;
31716;SDS011;18301;51.076;17.046;2023-03-14T06:37:12;11.80;;;4.60;;
31716;SDS011;18301;51.076;17.046;2023-03-14T06:42:13;10.60;;;5.88;;
31716;SDS011;18301;51.076;17.046;2023-03-14T06:47:14;10.10;;;5.78;;
31716;SDS011;18301;51.076;17.046;2023-03-14T06:52:16;9.07;;;4.88;;
31716;SDS011;18301;51.076;17.046;2023-03-14T06:57:17;10.48;;;4.85;;
31716;SDS011;18301;51.076;17.046;2023-03-14T07:02:19;8.82;;;4.22;;
31716;SDS011;18301;51.076;17.046;2023-03-14T07:07:29;12.00;;;5.18;;
31716;SDS011;18301;51.076;17.046;2023-03-14T07:12:31;8.30;;;4.53;;
31716;SDS011;18301;51.076;17.046;2023-03-14T07:17:32;10.13;;;5.18;;
31716;SDS011;18301;51.076;17.046;2023-03-14T07:22:34;19.63;;;7.05;;
31716;SDS011;18301;51.076;17.046;2023-03-14T07:27:35;9.20;;;5.10;;
31716;SDS011;18301;51.076;17.046;2023-03-14T07:32:37;8.10;;;4.85;;
31716;SDS011;18301;51.076;17.046;2023-03-14T07:37:38;8.13;;;5.10;;
31716;SDS011;18301;51.076;17.046;2023-03-14T07:42:40;10.35;;;5.15;;
31716;SDS011;18301;51.076;17.046;2023-03-14T07:47:42;8.80;;;4.70;;
31716;SDS011;18301;51.076;17.046;2023-03-14T07:52:43;8.65;;;5.53;;
31716;SDS011;18301;51.076;17.046;2023-03-14T07:57:45;9.60;;;4.97;;
31716;SDS011;18301;51.076;17.046;2023-03-14T08:02:46;16.30;;;5.18;;
31716;SDS011;18301;51.076;17.046;2023-03-14T08:07:48;8.30;;;4.93;;
31716;SDS011;18301;51.076;17.046;2023-03-14T08:12:56;8.50;;;5.30;;
31716;SDS011;18301;51.076;17.046;2023-03-14T08:17:59;8.93;;;5.03;;
31716;SDS011;18301;51.076;17.046;2023-03-14T08:23:01;11.45;;;4.90;;
31716;SDS011;18301;51.076;17.046;2023-03-14T08:28:03;10.77;;;5.82;;
31716;SDS011;18301;51.076;17.046;2023-03-14T08:33:05;11.07;;;5.05;;
31716;SDS011;18301;51.076;17.046;2023-03-14T08:38:06;10.55;;;5.38;;
31716;SDS011;18301;51.076;17.046;2023-03-14T08:43:08;10.82;;;5.47;;
31716;SDS011;18301;51.076;17.046;2023-03-14T08:48:09;11.88;;;6.88;;
31716;SDS011;18301;51.076;17.046;2023-03-14T08:53:11;13.50;;;6.93;;
31716;SDS011;18301;51.076;17.046;2023-03-14T08:58:12;11.43;;;5.95;;
31716;SDS011;18301;51.076;17.046;2023-03-14T09:03:14;11.93;;;5.57;;
31716;SDS011;18301;51.076;17.046;2023-03-14T09:08:15;12.90;;;7.05;;
31716;SDS011;18301;51.076;17.046;2023-03-14T09:13:17;9.85;;;5.60;;
31716;SDS011;18301;51.076;17.046;2023-03-14T09:18:18;7.93;;;4.57;;
31716;SDS011;18301;51.076;17.046;2023-03-14T09:23:20;8.27;;;5.00;;
31716;SDS011;18301;51.076;17.046;2023-03-14T09:28:22;7.60;;;4.18;;
31716;SDS011;18301;51.076;17.046;2023-03-14T09:33:24;7.75;;;4.90;;
31716;SDS011;18301;51.076;17.046;2023-03-14T09:38:25;10.40;;;5.25;;
31716;SDS011;18301;51.076;17.046;2023-03-14T09:43:28;9.15;;;5.25;;
31716;SDS011;18301;51.076;17.046;2023-03-14T09:48:33;9.77;;;6.38;;
31716;SDS011;18301;51.076;17.046;2023-03-14T09:53:37;9.43;;;5.60;;
31716;SDS011;18301;51.076;17.046;2023-03-14T09:58:42;12.32;;;7.82;;
31716;SDS011;18301;51.076;17.046;2023-03-14T10:03:48;18.98;;;8.68;;
31716;SDS011;18301;51.076;17.046;2023-03-14T10:08:52;9.95;;;5.38;;
31716;SDS011;18301;51.076;17.046;2023-03-14T10:14:02;6.93;;;4.43;;
31716;SDS011;18301;51.076;17.046;2023-03-14T10:19:15;10.38;;;4.82;;
31716;SDS011;18301;51.076;17.046;2023-03-14T10:24:21;10.10;;;5.53;;
31716;SDS011;18301;51.076;17.046;2023-03-14T10:29:28;11.20;;;6.30;;
31716;SDS011;18301;51.076;17.046;2023-03-14T10:34:32;9.13;;;5.82;;
31716;SDS011;18301;51.076;17.046;2023-03-14T10:39:41;9.88;;;5.50;;
31716;SDS011;18301;51.076;17.046;2023-03-14T10:44:48;10.43;;;5.97;;
31716;SDS011;18301;51.076;17.046;2023-03-14T10:49:56;14.18;;;7.43;;
31716;SDS011;18301;51.076;17.046;2023-03-14T10:55:15;10.30;;;5.45;;
31716;SDS011;18301;51.076;17.046;2023-03-14T11:00:21;9.90;;;5.75;;
31716;SDS011;18301;51.076;17.046;2023-03-14T11:10:48;7.25;;;4.47;;
31716;SDS011;18301;51.076;17.046;2023-03-14T11:16:15;11.55;;;5.32;;
31716;SDS011;18301;51.076;17.046;2023-03-14T11:31:48;8.82;;;4.10;;
31716;SDS011;18301;51.076;17.046;2023-03-14T11:36:55;6.32;;;4.18;;
31716;SDS011;18301;51.076;17.046;2023-03-14T11:42:01;6.13;;;3.03;;
31716;SDS011;18301;51.076;17.046;2023-03-14T11:47:39;6.63;;;3.40;;
31716;SDS011;18301;51.076;17.046;2023-03-14T11:52:41;5.82;;;3.03;;
31716;SDS011;18301;51.076;17.046;2023-03-14T11:57:45;4.97;;;3.47;;
31716;SDS011;18301;51.076;17.046;2023-03-14T12:03:02;10.57;;;3.72;;
31716;SDS011;18301;51.076;17.046;2023-03-14T12:08:38;8.50;;;4.75;;
31716;SDS011;18301;51.076;17.046;2023-03-14T12:13:47;5.88;;;4.40;;
31716;SDS011;18301;51.076;17.046;2023-03-14T12:18:52;8.52;;;5.32;;
31716;SDS011;18301;51.076;17.046;2023-03-14T12:23:55;8.93;;;5.13;;
31716;SDS011;18301;51.076;17.046;2023-03-14T12:34:01;8.73;;;5.45;;
31716;SDS011;18301;51.076;17.046;2023-03-14T12:39:05;6.00;;;4.15;;
31716;SDS011;18301;51.076;17.046;2023-03-14T12:49:30;7.32;;;4.82;;
31716;SDS011;18301;51.076;17.046;2023-03-14T13:00:03;7.32;;;5.07;;
31716;SDS011;18301;51.076;17.046;2023-03-14T13:05:20;9.27;;;5.72;;
31716;SDS011;18301;51.076;17.046;2023-03-14T13:10:27;9.68;;;5.18;;
31716;SDS011;18301;51.076;17.046;2023-03-14T13:15:40;7.10;;;4.88;;
31716;SDS011;18301;51.076;17.046;2023-03-14T13:20:59;6.70;;;4.35;;
31716;SDS011;18301;51.076;17.046;2023-03-14T13:26:11;8.82;;;4.47;;
31716;SDS011;18301;51.076;17.046;2023-03-14T13:31:25;7.45;;;4.90;;
31716;SDS011;18301;51.076;17.046;2023-03-14T13:36:27;8.02;;;4.63;;
31716;SDS011;18301;51.076;17.046;2023-03-14T13:41:29;8.10;;;5.47;;
31716;SDS011;18301;51.076;17.046;2023-03-14T13:46:30;7.57;;;4.15;;
31716;SDS011;18301;51.076;17.046;2023-03-14T13:51:36;5.75;;;3.45;;
31716;SDS011;18301;51.076;17.046;2023-03-14T13:56:40;5.90;;;3.63;;
31716;SDS011;18301;51.076;17.046;2023-03-14T14:01:42;7.47;;;4.53;;
31716;SDS011;18301;51.076;17.046;2023-03-14T14:06:59;9.13;;;5.35;;
31716;SDS011;18301;51.076;17.046;2023-03-14T14:17:21;8.05;;;4.45;;
31716;SDS011;18301;51.076;17.046;2023-03-14T14:22:37;8.23;;;4.95;;
31716;SDS011;18301;51.076;17.046;2023-03-14T14:27:40;8.13;;;5.40;;
31716;SDS011;18301;51.076;17.046;2023-03-14T14:32:45;7.28;;;4.30;;
31716;SDS011;18301;51.076;17.046;2023-03-14T14:37:48;9.90;;;5.55;;
31716;SDS011;18301;51.076;17.046;2023-03-14T14:42:50;11.52;;;5.03;;
31716;SDS011;18301;51.076;17.046;2023-03-14T14:47:54;7.38;;;4.63;;
31716;SDS011;18301;51.076;17.046;2023-03-14T14:53:42;7.75;;;5.22;;
31716;SDS011;18301;51.076;17.046;2023-03-14T14:58:40;9.10;;;5.57;;
31716;SDS011;18301;51.076;17.046;2023-03-14T15:03:43;9.85;;;5.93;;
31716;SDS011;18301;51.076;17.046;2023-03-14T15:08:46;11.13;;;6.80;;
31716;SDS011;18301;51.076;17.046;2023-03-14T15:13:50;15.07;;;8.82;;
31716;SDS011;18301;51.076;17.046;2023-03-14T15:18:56;14.13;;;6.03;;
31716;SDS011;18301;51.076;17.046;2023-03-14T15:23:58;11.88;;;6.22;;
31716;SDS011;18301;51.076;17.046;2023-03-14T15:29:00;12.65;;;5.75;;
31716;SDS011;18301;51.076;17.046;2023-03-14T15:34:01;11.18;;;6.03;;
31716;SDS011;18301;51.076;17.046;2023-03-14T15:39:04;11.65;;;5.70;;
31716;SDS011;18301;51.076;17.046;2023-03-14T15:44:07;13.20;;;7.03;;
31716;SDS011;18301;51.076;17.046;2023-03-14T15:49:08;12.63;;;6.57;;
31716;SDS011;18301;51.076;17.046;2023-03-14T15:54:10;12.93;;;5.15;;
31716;SDS011;18301;51.076;17.046;2023-03-14T15:59:11;8.32;;;3.83;;
31716;SDS011;18301;51.076;17.046;2023-03-14T16:04:13;6.55;;;3.80;;
31716;SDS011;18301;51.076;17.046;2023-03-14T16:09:15;9.18;;;3.80;;
31716;SDS011;18301;51.076;17.046;2023-03-14T16:14:17;4.47;;;2.92;;
31716;SDS011;18301;51.076;17.046;2023-03-14T16:19:18;4.35;;;2.85;;
31716;SDS011;18301;51.076;17.046;2023-03-14T16:24:19;4.35;;;2.50;;
31716;SDS011;18301;51.076;17.046;2023-03-14T16:29:21;4.13;;;2.38;;
31716;SDS011;18301;51.076;17.046;2023-03-14T16:34:23;5.38;;;2.97;;
31716;SDS011;18301;51.076;17.046;2023-03-14T16:39:24;4.90;;;2.83;;
31716;SDS011;18301;51.076;17.046;2023-03-14T16:44:28;6.57;;;3.03;;
31716;SDS011;18301;51.076;17.046;2023-03-14T16:49:31;6.45;;;3.45;;
31716;SDS011;18301;51.076;17.046;2023-03-14T16:54:33;8.52;;;3.65;;
31716;SDS011;18301;51.076;17.046;2023-03-14T16:59:35;5.97;;;3.63;;
31716;SDS011;18301;51.076;17.046;2023-03-14T17:04:38;8.02;;;4.20;;
31716;SDS011;18301;51.076;17.046;2023-03-14T17:09:40;9.65;;;5.57;;
31716;SDS011;18301;51.076;17.046;2023-03-14T17:14:42;9.48;;;4.93;;
31716;SDS011;18301;51.076;17.046;2023-03-14T17:19:44;9.82;;;5.35;;
31716;SDS011;18301;51.076;17.046;2023-03-14T17:24:45;9.32;;;5.60;;
31716;SDS011;18301;51.076;17.046;2023-03-14T17:29:47;9.52;;;5.68;;
31716;SDS011;18301;51.076;17.046;2023-03-14T17:34:49;10.95;;;6.30;;
31716;SDS011;18301;51.076;17.046;2023-03-14T17:39:50;17.98;;;8.75;;
31716;SDS011;18301;51.076;17.046;2023-03-14T17:44:51;8.52;;;5.63;;
31716;SDS011;18301;51.076;17.046;2023-03-14T17:49:53;18.88;;;10.10;;
31716;SDS011;18301;51.076;17.046;2023-03-14T17:54:54;22.70;;;12.25;;
31716;SDS011;18301;51.076;17.046;2023-03-14T17:59:56;23.60;;;11.48;;
31716;SDS011;18301;51.076;17.046;2023-03-14T18:04:58;35.97;;;17.20;;
31716;SDS011;18301;51.076;17.046;2023-03-14T18:09:59;34.85;;;18.25;;
31716;SDS011;18301;51.076;17.046;2023-03-14T18:15:01;31.90;;;17.20;;
31716;SDS011;18301;51.076;17.046;2023-03-14T18:20:04;26.27;;;14.65;;
31716;SDS011;18301;51.076;17.046;2023-03-14T18:25:09;25.55;;;14.55;;
31716;SDS011;18301;51.076;17.046;2023-03-14T18:30:11;20.00;;;12.10;;
31716;SDS011;18301;51.076;17.046;2023-03-14T18:35:14;17.92;;;10.57;;
31716;SDS011;18301;51.076;17.046;2023-03-14T18:40:16;14.13;;;8.32;;
31716;SDS011;18301;51.076;17.046;2023-03-14T18:45:19;21.83;;;10.93;;
31716;SDS011;18301;51.076;17.046;2023-03-14T18:50:21;14.60;;;7.85;;
31716;SDS011;18301;51.076;17.046;2023-03-14T18:55:22;14.80;;;8.13;;
31716;SDS011;18301;51.076;17.046;2023-03-14T19:00:24;16.35;;;8.35;;
31716;SDS011;18301;51.076;17.046;2023-03-14T19:05:28;16.23;;;9.70;;
31716;SDS011;18301;51.076;17.046;2023-03-14T19:10:30;26.02;;;16.10;;
31716;SDS011;18301;51.076;17.046;2023-03-14T19:15:34;17.98;;;10.82;;
31716;SDS011;18301;51.076;17.046;2023-03-14T19:20:36;32.25;;;17.33;;
31716;SDS011;18301;51.076;17.046;2023-03-14T19:25:38;40.30;;;18.80;;
31716;SDS011;18301;51.076;17.046;2023-03-14T19:30:43;43.15;;;19.73;;
31716;SDS011;18301;51.076;17.046;2023-03-14T19:35:45;26.92;;;14.27;;
31716;SDS011;18301;51.076;17.046;2023-03-14T19:40:47;13.55;;;8.00;;
31716;SDS011;18301;51.076;17.046;2023-03-14T19:45:50;12.63;;;6.93;;
31716;SDS011;18301;51.076;17.046;2023-03-14T19:50:52;9.10;;;5.07;;
31716;SDS011;18301;51.076;17.046;2023-03-14T19:55:53;9.60;;;4.55;;
31716;SDS011;18301;51.076;17.046;2023-03-14T20:00:55;2.35;;;1.48;;
31716;SDS011;18301;51.076;17.046;2023-03-14T20:05:57;4.50;;;1.42;;
31716;SDS011;18301;51.076;17.046;2023-03-14T20:11:01;3.90;;;1.27;;
31716;SDS011;18301;51.076;17.046;2023-03-14T20:16:05;3.90;;;1.02;;
31716;SDS011;18301;51.076;17.046;2023-03-14T20:21:10;2.70;;;1.33;;
31716;SDS011;18301;51.076;17.046;2023-03-14T20:26:15;1.58;;;0.93;;
31716;SDS011;18301;51.076;17.046;2023-03-14T20:31:16;1.13;;;0.80;;
31716;SDS011;18301;51.076;17.046;2023-03-14T20:36:18;3.17;;;0.63;;
31716;SDS011;18301;51.076;17.046;2023-03-14T20:41:20;0.82;;;0.40;;
31716;SDS011;18301;51.076;17.046;2023-03-14T20:46:21;1.10;;;0.70;;
31716;SDS011;18301;51.076;17.046;2023-03-14T20:51:23;1.17;;;0.68;;
31716;SDS011;18301;51.076;17.046;2023-03-14T20:56:26;1.60;;;0.80;;
31716;SDS011;18301;51.076;17.046;2023-03-14T21:01:27;0.68;;;0.68;;
31716;SDS011;18301;51.076;17.046;2023-03-14T21:06:46;0.73;;;0.70;;
31716;SDS011;18301;51.076;17.046;2023-03-14T21:11:47;0.65;;;0.65;;
31716;SDS011;18301;51.076;17.046;2023-03-14T21:16:49;2.15;;;0.80;;
31716;SDS011;18301;51.076;17.046;2023-03-14T21:22:03;1.65;;;0.90;;
31716;SDS011;18301;51.076;17.046;2023-03-14T21:27:05;1.35;;;0.77;;
31716;SDS011;18301;51.076;17.046;2023-03-14T21:32:07;0.90;;;0.80;;
31716;SDS011;18301;51.076;17.046;2023-03-14T21:37:08;0.85;;;0.80;;
31716;SDS011;18301;51.076;17.046;2023-03-14T21:42:10;1.90;;;0.95;;
31716;SDS011;18301;51.076;17.046;2023-03-14T21:47:11;1.90;;;1.00;;
31716;SDS011;18301;51.076;17.046;2023-03-14T21:52:13;2.38;;;0.98;;
31716;SDS011;18301;51.076;17.046;2023-03-14T21:57:14;1.10;;;0.95;;
31716;SDS011;18301;51.076;17.046;2023-03-14T22:02:17;3.17;;;1.20;;
31716;SDS011;18301;51.076;17.046;2023-03-14T22:07:19;1.92;;;1.10;;
31716;SDS011;18301;51.076;17.046;2023-03-14T22:12:21;3.78;;;1.20;;
31716;SDS011;18301;51.076;17.046;2023-03-14T22:17:23;1.85;;;1.10;;
31716;SDS011;18301;51.076;17.046;2023-03-14T22:22:24;2.40;;;1.08;;
31716;SDS011;18301;51.076;17.046;2023-03-14T22:27:26;4.40;;;1.55;;
31716;SDS011;18301;51.076;17.046;2023-03-14T22:32:27;2.42;;;1.42;;
31716;SDS011;18301;51.076;17.046;2023-03-14T22:37:29;2.42;;;1.20;;
31716;SDS011;18301;51.076;17.046;2023-03-14T22:42:30;2.60;;;1.40;;
31716;SDS011;18301;51.076;17.046;2023-03-14T22:47:32;2.47;;;1.30;;
31716;SDS011;18301;51.076;17.046;2023-03-14T22:52:34;2.08;;;1.40;;
31716;SDS011;18301;51.076;17.046;2023-03-14T22:57:35;4.38;;;1.77;;
31716;SDS011;18301;51.076;17.046;2023-03-14T23:02:37;5.68;;;2.40;;
31716;SDS011;18301;51.076;17.046;2023-03-14T23:07:40;4.75;;;2.65;;
31716;SDS011;18301;51.076;17.046;2023-03-14T23:12:41;6.00;;;2.60;;
31716;SDS011;18301;51.076;17.046;2023-03-14T23:17:45;4.43;;;2.85;;
31716;SDS011;18301;51.076;17.046;2023-03-14T23:22:46;7.40;;;3.92;;
31716;SDS011;18301;51.076;17.046;2023-03-14T23:27:48;8.93;;;3.58;;
31716;SDS011;18301;51.076;17.046;2023-03-14T23:32:49;7.50;;;3.22;;
31716;SDS011;18301;51.076;17.046;2023-03-14T23:37:51;9.75;;;3.55;;
31716;SDS011;18301;51.076;17.046;2023-03-14T23:42:52;8.65;;;3.47;;
31716;SDS011;18301;51.076;17.046;2023-03-14T23:47:54;6.55;;;3.50;;
31716;SDS011;18301;51.076;17.046;2023-03-14T23:52:55;10.07;;;3.80;;
31716;SDS011;18301;51.076;17.046;2023-03-14T23:57:57;7.05;;;3.72;;
